Flight Track Log - Related Links

Times and Time Zones

All times are in EDT time to prevent confusion due to time zone crossing. See the N779NC flight status page for this flight to view local times or setup timezone preferences in your user account.


Time Position Orientation Groundspeed Altitude Reporting Facility
EDT Latitude Longitude Course Direction KTS MPH feet Rate Location/Type
Mon 06:22:40 PM 33.6264 -84.4953 90° East 409 471 2,700  Level Atlanta Center
Mon 06:23:40 PM 33.5906 -84.5775 242° Southwest 283 326 5,200 2,400 Climbing Atlanta Center
Mon 06:24:40 PM 33.5197 -84.5844 185° South 236 272 7,500 2,400 Climbing Atlanta Center
Mon 06:25:00 PM 33.6183 -83.9087 92° East  Level FlightAware Approximate
Mon 06:25:40 PM 33.4678 -84.5294 139° Southeast 291 335 10,000  Level Atlanta Center
Mon 06:26:00 PM 33.6345 -83.7803 90° East  Level Estimated
Mon 06:26:40 PM 33.4575 -84.4247 97° East 327 376 11,100  Level Atlanta Center
Mon 06:27:00 PM 33.6505 -83.6518 85° East  Level Estimated
Mon 06:27:40 PM 33.4642 -84.3003 86° East 349 402 12,200  Level Atlanta Center
Mon 06:28:00 PM 33.6505 -83.5219 90° East  Level FlightAware Approximate
Mon 06:28:40 PM 33.4853 -84.1683 79° East 385 443 13,900  Level Atlanta Center
Mon 06:29:40 PM 33.5083 -84.0314 79° East 411 473 15,300 1,900 Climbing Atlanta Center
Mon 06:30:40 PM 33.5333 -83.8992 77° East 422 486 17,700 1,900 Climbing Atlanta Center
Mon 06:31:40 PM 33.5603 -83.7597 77° East 417 480 19,100 1,300 Climbing Atlanta Center
Mon 06:32:40 PM 33.5869 -83.6150 77° East 434 499 20,300 1,150 Climbing Atlanta Center
Mon 06:33:40 PM 33.6072 -83.4825 80° East 440 506 21,400 1,150 Climbing Atlanta Center
Mon 06:34:40 PM 33.6253 -83.3278 82° East 457 526 22,600 800 Climbing Atlanta Center
Mon 06:35:40 PM 33.6450 -83.1728 81° East 469 540 23,000 200 Climbing Atlanta Center
Mon 06:36:40 PM 33.6667 -83.0081 81° East 482 555 23,000  Level Atlanta Center
Mon 06:37:40 PM 33.6903 -82.8478 80° East 482 555 23,000  Level Atlanta Center
Mon 06:38:40 PM 33.7181 -82.6903 78° East 482 555 23,000  Level Atlanta Center
Mon 06:39:40 PM 33.7411 -82.5325 80° East 482 555 23,000 -1,321 Level Atlanta Center
Mon 06:41:28 PM 33.7617 -82.2506 85° East 480 552 19,300 -2,464 Descending Jacksonville Center
Mon 06:42:28 PM 33.7631 -82.1006 89° East 463 533 16,100 -3,100 Descending Jacksonville Center
Mon 06:43:28 PM 33.7808 -81.9681 81° East 429 494 13,100 -2,500 Descending Jacksonville Center
Mon 06:44:28 PM 33.8006 -81.8178 81° East 407 468 11,100 -1,350 Descending Jacksonville Center
Mon 06:45:28 PM 33.8078 -81.7028 86° East 390 449 10,400 -800 Descending Jacksonville Center
Mon 06:46:28 PM 33.8111 -81.5978 88° East 350 403 9,500 -1,600 Descending Jacksonville Center
Mon 06:47:28 PM 33.8792 -81.5342 38° Northeast 281 323 7,200 -2,300 Descending Jacksonville Center
Mon 06:48:28 PM 33.9517 -81.4931 25° Northeast 273 314 4,900 -2,100 Descending Jacksonville Center
Mon 06:49:28 PM 34.0094 -81.4394 38° Northeast 273 314 3,000 -1,350 Descending Jacksonville Center
Mon 06:50:28 PM 33.9964 -81.3722 103° East 196 226 2,200 -350 Descending Jacksonville Center
Mon 06:51:28 PM 33.9808 -81.3147 108° East 178 205 2,300 100 Climbing Jacksonville Center

Login

Don't have an account? Register now (free) for customized features, flight alerts, and more!